Athens, Maine
Current Conditions -  °F | °C
As of 8:35 AM on Friday 19 Dec 2014 (Local Time) from KWVL Reporting Station
Overcast Overcast  
Wind Chill: 18°   Ceiling: 2800
Heat Index: 28°   Visibility: 10mi
Dew Point: 19°   Wind: 13mph
Humidity: 69%   Direction: 340°NNW
Pressure: 29.87"   Gusts: NA
Location:  44.92°N, 69.67°W
Report Text: KWVL 191335Z 34011KT 10SM OVC028 M02/M07 A2987 RMK AO1
Loading
Personal Weather Stations






























Interactive Weather Map New forecast layout! Learn more

10-Day Weather Forecast

Advertisements
Track Severe Weather on mobile